Have a Safe July 4th! 

Flight Track Log - Related Links

Times and Time Zones

All times are in EDT time to prevent confusion due to time zone crossing. See the FDX1235 flight status page for this flight to view local times or setup timezone preferences in your user account.

Time Position Orientation Groundspeed Altitude Reporting Facility
EDT Latitude Longitude Course Direction KTS MPH feet Rate Location/Type
Fri 09:54:39 PM 41.9228 -72.6772 188° South 171 197 800  Level Boston Center
Fri 09:55:15 PM 41.9083 -72.6800 188° South 143 165 2,200 1,970 Climbing Boston Center
Fri 09:55:46 PM 41.9061 -72.7161 265° West 182 209 3,000 1,700 Climbing Boston Center
Fri 09:56:15 PM 41.9164 -72.7636 286° West 261 300 3,900 3,169 Climbing Boston Center
Fri 09:57:15 PM 41.9831 -72.8003 338° Northwest 285 328 7,700 2,298 Climbing Boston Center
Fri 10:03:11 PM 42.2500 -73.3620 338° Northwest 20,700 2,173 Climbing FlightAware ADS-B
Fri 10:04:01 PM 42.2390 -73.4900 263° West 22,700 2,155 Climbing FlightAware ADS-B
Fri 10:04:41 PM 42.2300 -73.5920 263° West 24,100 2,115 Climbing FlightAware ADS-B
Fri 10:05:26 PM 42.2200 -73.7050 263° West 25,700 2,118 Climbing FlightAware ADS-B
Fri 10:07:52 PM 42.1831 -74.1012 263° West 31,000 2,115 Climbing FlightAware ADS-B
Fri 10:08:46 PM 42.1720 -74.2230 263° West 32,700 2,000 Climbing FlightAware ADS-B
Fri 10:09:13 PM 42.1635 -74.3085 262° West 414 476 33,700 1,368 Climbing FlightAware ADS-B
Fri 10:09:43 PM 42.1561 -74.3859 263° West 408 470 34,000 295 Climbing FlightAware ADS-B
Fri 10:10:14 PM 42.1485 -74.4626 262° West 415 478 34,000  Level FlightAware ADS-B
Fri 10:10:47 PM 42.1405 -74.5450 263° West 403 464 34,000  Level FlightAware ADS-B
Fri 10:11:18 PM 42.1333 -74.6216 263° West 412 474 34,000  Level FlightAware ADS-B
Fri 10:11:50 PM 42.1261 -74.6990 263° West 401 461 34,000  Level FlightAware ADS-B
Fri 10:12:20 PM 42.1185 -74.7743 262° West 401 461 34,000  Level FlightAware ADS-B
Fri 10:12:55 PM 42.1099 -74.8598 262° West 399 459 34,000  Level FlightAware ADS-B
Fri 10:13:26 PM 42.1020 -74.9379 262° West 395 455 34,000  Level FlightAware ADS-B
Fri 10:13:57 PM 42.0939 -75.0146 262° West 408 470 34,000  Level FlightAware ADS-B
Fri 10:14:35 PM 42.0843 -75.1092 262° West 409 471 34,000  Level FlightAware ADS-B
Fri 10:15:07 PM 42.0761 -75.1880 262° West 411 473 34,000  Level FlightAware ADS-B
Fri 10:15:38 PM 42.0663 -75.2653 260° West 406 467 34,000  Level FlightAware ADS-B
Fri 10:16:13 PM 42.0464 -75.3495 252° West 398 458 34,000  Level FlightAware ADS-B
Fri 10:16:48 PM 42.0170 -75.4298 244° Southwest 397 457 34,000  Level FlightAware ADS-B
Fri 10:17:20 PM 41.9884 -75.4985 241° Southwest 405 466 34,000  Level FlightAware ADS-B
Fri 10:17:52 PM 41.9590 -75.5693 241° Southwest 406 467 34,000  Level FlightAware ADS-B
Fri 10:18:26 PM 41.9300 -75.6380 240° Southwest 34,000  Level FlightAware ADS-B
Fri 10:19:00 PM 41.8983 -75.7155 241° Southwest 399 459 34,000  Level FlightAware ADS-B
Fri 10:19:31 PM 41.8704 -75.7827 241° Southwest 404 465 34,000  Level FlightAware ADS-B
Fri 10:20:02 PM 41.8426 -75.8496 241° Southwest 406 467 34,000  Level FlightAware ADS-B
Fri 10:20:35 PM 41.8128 -75.9210 241° Southwest 404 465 34,000  Level FlightAware ADS-B
Fri 10:21:05 PM 41.7851 -75.9869 241° Southwest 397 457 34,000  Level FlightAware ADS-B
Fri 10:21:35 PM 41.7582 -76.0515 241° Southwest 389 448 34,000  Level FlightAware ADS-B
Fri 10:22:06 PM 41.7309 -76.1164 241° Southwest 403 464 34,000  Level FlightAware ADS-B
Fri 10:22:36 PM 41.7036 -76.1809 240° Southwest 397 457 34,000  Level FlightAware ADS-B
Fri 10:23:10 PM 41.6725 -76.2547 241° Southwest 407 468 34,000  Level FlightAware ADS-B
Fri 10:23:40 PM 41.6449 -76.3201 241° Southwest 415 478 34,000  Level FlightAware ADS-B
Fri 10:24:10 PM 41.6167 -76.3864 240° Southwest 395 455 34,000  Level FlightAware ADS-B
Fri 10:24:41 PM 41.5886 -76.4529 241° Southwest 409 471 34,000  Level FlightAware ADS-B
Fri 10:25:11 PM 41.5601 -76.5193 240° Southwest 398 458 34,000  Level FlightAware ADS-B
Fri 10:25:43 PM 41.5304 -76.5891 240° Southwest 394 453 34,000  Level FlightAware ADS-B
Fri 10:26:16 PM 41.4996 -76.6611 240° Southwest 405 466 34,000  Level FlightAware ADS-B
Fri 10:26:47 PM 41.4710 -76.7276 240° Southwest 408 470 34,000  Level FlightAware ADS-B
Fri 10:27:18 PM 41.4425 -76.7944 240° Southwest 403 464 34,000  Level FlightAware ADS-B
Fri 10:27:51 PM 41.4113 -76.8672 240° Southwest 402 463 34,000  Level FlightAware ADS-B
Fri 10:28:22 PM 41.3816 -76.9354 240° Southwest 414 476 34,000  Level FlightAware ADS-B
Fri 10:28:55 PM 41.3507 -77.0066 240° Southwest 406 467 34,000  Level FlightAware ADS-B
Fri 10:29:27 PM 41.3211 -77.0748 240° Southwest 404 465 34,000  Level FlightAware ADS-B
Fri 10:29:58 PM 41.2919 -77.1418 240° Southwest 402 463 34,000  Level FlightAware ADS-B
Fri 10:30:30 PM 41.2621 -77.2104 240° Southwest 407 468 34,000  Level FlightAware ADS-B
Fri 10:31:01 PM 41.2350 -77.2710 239° Southwest 34,000  Level FlightAware ADS-B
Fri 10:31:19 PM 41.2150 -77.3182 241° Southwest 412 474 34,000  Level FlightAware ADS-B
Fri 10:31:57 PM 41.1783 -77.4018 240° Southwest 413 475 34,000  Level FlightAware ADS-B
Fri 10:32:31 PM 41.1520 -77.4610 239° Southwest 34,000  Level FlightAware ADS-B
Fri 10:32:33 PM 41.1442 -77.4797 241° Southwest 408 470 34,000  Level FlightAware ADS-B
Fri 10:33:06 PM 41.1160 -77.5430 239° Southwest 34,000  Level FlightAware ADS-B
Fri 10:33:14 PM 41.1055 -77.5671 240° Southwest 411 473 34,000  Level FlightAware ADS-B
Fri 10:33:46 PM 41.0800 -77.6250 240° Southwest 34,000  Level FlightAware ADS-B
Fri 10:34:13 PM 41.0497 -77.6934 240° Southwest 405 466 34,000  Level FlightAware ADS-B
Fri 10:34:51 PM 41.0125 -77.7774 240° Southwest 407 468 34,000  Level FlightAware ADS-B
Fri 10:35:56 PM 40.9560 -77.9040 239° Southwest 34,000  Level FlightAware ADS-B
Fri 10:36:36 PM 40.9130 -77.9990 239° Southwest 34,000  Level FlightAware ADS-B
Fri 10:37:21 PM 40.8700 -78.0870 237° Southwest 34,000  Level FlightAware ADS-B
Fri 10:38:06 PM 40.8220 -78.1800 236° Southwest 34,000  Level FlightAware ADS-B
Fri 10:38:46 PM 40.7790 -78.2660 237° Southwest 34,000  Level FlightAware ADS-B
Fri 10:39:41 PM 40.7230 -78.3750 236° Southwest 34,000  Level FlightAware ADS-B
Fri 10:40:26 PM 40.6730 -78.4730 236° Southwest 34,000  Level FlightAware ADS-B
Fri 10:41:01 PM 40.6360 -78.5460 236° Southwest 34,000  Level FlightAware ADS-B
Fri 10:41:51 PM 40.5840 -78.6470 236° Southwest 34,000  Level FlightAware ADS-B
Fri 10:42:31 PM 40.5420 -78.7280 236° Southwest 34,000  Level FlightAware ADS-B
Fri 10:43:11 PM 40.5030 -78.8050 236° Southwest 34,000  Level FlightAware ADS-B
Fri 10:43:46 PM 40.4630 -78.8830 236° Southwest 34,000  Level FlightAware ADS-B
Fri 10:44:36 PM 40.4100 -78.9850 236° Southwest 34,000  Level FlightAware ADS-B
Fri 10:45:21 PM 40.3610 -79.0790 236° Southwest 34,000  Level FlightAware ADS-B
Fri 10:46:01 PM 40.3220 -79.1530 235° Southwest 34,000  Level FlightAware ADS-B
Fri 10:46:41 PM 40.2770 -79.2410 236° Southwest 34,000  Level FlightAware ADS-B
Fri 10:47:51 PM 40.1970 -79.3920 235° Southwest 34,000  Level FlightAware ADS-B
Fri 10:48:31 PM 40.1570 -79.4690 236° Southwest 34,000  Level FlightAware ADS-B
Fri 10:49:16 PM 40.1070 -79.5640 235° Southwest 34,000  Level FlightAware ADS-B
Fri 10:49:56 PM 40.0620 -79.6490 235° Southwest 34,000  Level FlightAware ADS-B
Fri 10:50:43 PM 40.0203 -79.7264 235° Southwest 407 468 34,000  Level Indianapolis Center
Fri 10:51:44 PM 39.9553 -79.8472 235° Southwest 407 468 34,000  Level Indianapolis Center
Fri 10:56:56 PM 39.6160 -80.4800 235° Southwest 34,000  Level FlightAware ADS-B
Fri 10:57:41 PM 39.5640 -80.5750 235° Southwest 34,000  Level FlightAware ADS-B
Fri 10:58:21 PM 39.5210 -80.6540 235° Southwest 34,000  Level FlightAware ADS-B
Fri 10:59:06 PM 39.4700 -80.7460 234° Southwest 34,000  Level FlightAware ADS-B
Fri 10:59:46 PM 39.4270 -80.8260 235° Southwest 34,000  Level FlightAware ADS-B
Fri 11:00:26 PM 39.3830 -80.9050 234° Southwest 34,000  Level FlightAware ADS-B
Fri 11:01:11 PM 39.3360 -80.9890 234° Southwest 34,000  Level FlightAware ADS-B
Fri 11:01:51 PM 39.2920 -81.0690 235° Southwest 34,000  Level FlightAware ADS-B
Fri 11:02:36 PM 39.2410 -81.1620 235° Southwest 34,000  Level FlightAware ADS-B
Fri 11:03:11 PM 39.2030 -81.2300 234° Southwest 34,000  Level FlightAware ADS-B
Fri 11:04:56 PM 39.0860 -81.4390 234° Southwest 34,000  Level FlightAware ADS-B
Fri 11:05:36 PM 39.0440 -81.5140 234° Southwest 34,000  Level FlightAware ADS-B
Fri 11:06:21 PM 38.9920 -81.6060 234° Southwest 34,000  Level FlightAware ADS-B
Fri 11:07:01 PM 38.9490 -81.6830 234° Southwest 34,000  Level FlightAware ADS-B
Fri 11:07:41 PM 38.9030 -81.7630 234° Southwest 34,000  Level FlightAware ADS-B
Fri 11:08:26 PM 38.8560 -81.8480 235° Southwest 34,000  Level FlightAware ADS-B
Fri 11:09:06 PM 38.8110 -81.9260 234° Southwest 34,000  Level FlightAware ADS-B
Fri 11:09:51 PM 38.7600 -82.0150 234° Southwest 34,000  Level FlightAware ADS-B
Fri 11:10:31 PM 38.7170 -82.0950 235° Southwest 34,000  Level FlightAware ADS-B
Fri 11:11:11 PM 38.6750 -82.1760 236° Southwest 34,000  Level FlightAware ADS-B
Fri 11:11:51 PM 38.6330 -82.2560 236° Southwest 34,000  Level FlightAware ADS-B
Fri 11:12:36 PM 38.5920 -82.3350 236° Southwest 34,000  Level FlightAware ADS-B
Fri 11:13:31 PM 38.5290 -82.4540 236° Southwest 34,000  Level FlightAware ADS-B
Fri 11:14:26 PM 38.4710 -82.5640 236° Southwest 34,000  Level FlightAware ADS-B
Fri 11:15:11 PM 38.4210 -82.6570 236° Southwest 34,000  Level FlightAware ADS-B
Fri 11:15:51 PM 38.3780 -82.7370 236° Southwest 34,000  Level FlightAware ADS-B
Fri 11:16:36 PM 38.3320 -82.8240 236° Southwest 34,000  Level FlightAware ADS-B
Fri 11:17:06 PM 38.3010 -82.8800 235° Southwest 34,000  Level FlightAware ADS-B
Fri 11:18:52 PM 38.1830 -83.1002 236° Southwest 34,000  Level FlightAware ADS-B
Fri 11:19:23 PM 38.1500 -83.1614 236° Southwest 413 475 34,000  Level FlightAware ADS-B
Fri 11:20:00 PM 38.1114 -83.2324 235° Southwest 401 461 34,000  Level FlightAware ADS-B
Fri 11:20:44 PM 38.0657 -83.3166 235° Southwest 398 458 34,000  Level FlightAware ADS-B
Fri 11:21:21 PM 38.0273 -83.3876 236° Southwest 394 453 34,000  Level FlightAware ADS-B
Fri 11:22:11 PM 37.9770 -83.4790 235° Southwest 34,000  Level FlightAware ADS-B
Fri 11:23:01 PM 37.9290 -83.5670 235° Southwest 34,000  Level FlightAware ADS-B
Fri 11:24:56 PM 37.8080 -83.7880 235° Southwest 34,000  Level FlightAware ADS-B
Fri 11:25:41 PM 37.7640 -83.8660 235° Southwest 34,000  Level FlightAware ADS-B
Fri 11:26:33 PM 37.7094 -83.9649 235° Southwest 363 418 34,000  Level FlightAware ADS-B
Fri 11:27:04 PM 37.6785 -84.0210 235° Southwest 380 437 34,000  Level FlightAware ADS-B
Fri 11:27:35 PM 37.6472 -84.0770 235° Southwest 379 436 34,000  Level FlightAware ADS-B
Fri 11:28:05 PM 37.6163 -84.1320 235° Southwest 391 450 34,000  Level FlightAware ADS-B
Fri 11:28:36 PM 37.5849 -84.1886 235° Southwest 384 442 34,000  Level FlightAware ADS-B
Fri 11:29:07 PM 37.5542 -84.2433 235° Southwest 373 429 34,000  Level FlightAware ADS-B
Fri 11:29:37 PM 37.5238 -84.2979 235° Southwest 381 438 34,000  Level FlightAware ADS-B
Fri 11:30:46 PM 37.4580 -84.4150 235° Southwest 34,000  Level FlightAware ADS-B
Fri 11:30:54 PM 37.4462 -84.4361 235° Southwest 380 437 34,000  Level FlightAware ADS-B
Fri 11:31:26 PM 37.4138 -84.4935 235° Southwest 385 443 34,000  Level FlightAware ADS-B
Fri 11:32:06 PM 37.3770 -84.5570 234° Southwest 34,000  Level FlightAware ADS-B
Fri 11:32:26 PM 37.3530 -84.6011 236° Southwest 376 433 34,000  Level FlightAware ADS-B
Fri 11:32:56 PM 37.3224 -84.6550 234° Southwest 380 437 34,000  Level FlightAware ADS-B
Fri 11:33:31 PM 37.2866 -84.7181 235° Southwest 382 440 34,000  Level FlightAware ADS-B
Fri 11:34:13 PM 37.2444 -84.7927 235° Southwest 381 438 34,000  Level FlightAware ADS-B
Fri 11:34:45 PM 37.2117 -84.8500 234° Southwest 387 445 34,000  Level FlightAware ADS-B
Fri 11:35:16 PM 37.1800 -84.9056 234° Southwest 381 438 34,000  Level FlightAware ADS-B
Fri 11:35:46 PM 37.1486 -84.9605 234° Southwest 380 437 34,000  Level FlightAware ADS-B
Fri 11:36:18 PM 37.1154 -85.0186 234° Southwest 385 443 34,000  Level FlightAware ADS-B
Fri 11:36:55 PM 37.0772 -85.0857 235° Southwest 393 452 34,000  Level FlightAware ADS-B
Fri 11:37:26 PM 37.0454 -85.1408 234° Southwest 390 449 34,000  Level FlightAware ADS-B
Fri 11:37:57 PM 37.0131 -85.1968 234° Southwest 391 450 34,000  Level FlightAware ADS-B
Fri 11:38:29 PM 36.9798 -85.2543 234° Southwest 385 443 34,000  Level FlightAware ADS-B
Fri 11:38:59 PM 36.9486 -85.3088 234° Southwest 378 435 34,000  Level FlightAware ADS-B
Fri 11:40:19 PM 36.8669 -85.4498 234° Southwest 379 436 34,000  Level FlightAware ADS-B
Fri 11:41:25 PM 36.7992 -85.5658 234° Southwest 34,000  Level FlightAware ADS-B
Fri 11:42:07 PM 36.7561 -85.6398 234° Southwest 380 437 34,000  Level FlightAware ADS-B
Fri 11:42:37 PM 36.7254 -85.6925 234° Southwest 373 429 34,000  Level FlightAware ADS-B
Fri 11:43:08 PM 36.6942 -85.7461 234° Southwest 375 432 34,000  Level FlightAware ADS-B
Fri 11:43:38 PM 36.6622 -85.8005 234° Southwest 372 428 34,000  Level FlightAware ADS-B
Fri 11:44:09 PM 36.6308 -85.8540 234° Southwest 379 436 34,000  Level FlightAware ADS-B
Fri 11:44:39 PM 36.5994 -85.9074 234° Southwest 386 444 34,000  Level FlightAware ADS-B
Fri 11:45:10 PM 36.5678 -85.9608 234° Southwest 382 440 34,000  Level FlightAware ADS-B
Fri 11:45:42 PM 36.5352 -86.0164 234° Southwest 367 422 34,000  Level FlightAware ADS-B
Fri 11:46:13 PM 36.5031 -86.0710 234° Southwest 377 434 34,000  Level FlightAware ADS-B
Fri 11:46:44 PM 36.4705 -86.1263 234° Southwest 361 415 34,000  Level FlightAware ADS-B
Fri 11:47:21 PM 36.4340 -86.1870 233° Southwest 34,000  Level FlightAware ADS-B
Fri 11:48:06 PM 36.3870 -86.2670 234° Southwest 34,000  Level FlightAware ADS-B
Fri 11:48:46 PM 36.3470 -86.3340 233° Southwest 34,000  Level FlightAware ADS-B
Fri 11:49:26 PM 36.3070 -86.4020 234° Southwest 34,000  Level FlightAware ADS-B
Fri 11:50:11 PM 36.2630 -86.4740 233° Southwest 34,000  Level FlightAware ADS-B
Fri 11:50:51 PM 36.2230 -86.5420 234° Southwest 34,000  Level FlightAware ADS-B
Fri 11:51:36 PM 36.1760 -86.6200 233° Southwest 34,000  Level FlightAware ADS-B
Fri 11:52:16 PM 36.1400 -86.6900 238° Southwest 34,000  Level FlightAware ADS-B
Fri 11:52:55 PM 36.1098 -86.7656 244° Southwest 369 425 34,000  Level FlightAware ADS-B
Fri 11:53:29 PM 36.0889 -86.8323 249° West 365 420 34,000  Level FlightAware ADS-B
Fri 11:54:06 PM 36.0662 -86.9070 249° West 368 423 34,000  Level FlightAware ADS-B
Fri 11:54:56 PM 36.0357 -87.0031 249° West 365 420 34,000 -71 Level FlightAware ADS-B
Fri 11:55:46 PM 36.0060 -87.0970 249° West 34,000 -79 Level FlightAware ADS-B
Fri 11:56:26 PM 35.9810 -87.1730 248° West 34,000 -89 Level FlightAware ADS-B
Fri 11:57:11 PM 35.9540 -87.2580 249° West 34,000 -98 Level FlightAware ADS-B
Fri 11:57:51 PM 35.9290 -87.3360 248° West 34,000 -112 Level FlightAware ADS-B
Fri 11:58:36 PM 35.9010 -87.4230 248° West 34,000 -128 Level FlightAware ADS-B
Fri 11:59:16 PM 35.8750 -87.5020 248° West 34,000 -153 Level FlightAware ADS-B
Fri 11:59:56 PM 35.8520 -87.5730 248° West 34,000 -184 Level FlightAware ADS-B
Sat 12:00:41 AM 35.8230 -87.6620 248° West 34,000 -231 Level FlightAware ADS-B
Sat 12:01:21 AM 35.7980 -87.7390 248° West 34,000 -324 Level FlightAware ADS-B
Sat 12:02:16 AM 35.7640 -87.8420 248° West 33,700 -507 Descending FlightAware ADS-B
Sat 12:02:32 AM 35.7500 -87.8758 248° West 367 422 33,400 -1,026 Descending Memphis Center
Sat 12:03:32 AM 35.7147 -87.9919 250° West 367 422 32,400 -1,050 Descending Memphis Center
Sat 12:04:32 AM 35.6731 -88.1081 246° West 372 428 31,300 -1,100 Descending Memphis Center
Sat 12:05:32 AM 35.6436 -88.2111 251° West 354 407 30,200 -1,300 Descending Memphis Center
Sat 12:06:32 AM 35.6078 -88.3092 246° West 330 380 28,700 -1,450 Descending Memphis Center
Sat 12:07:32 AM 35.5611 -88.3969 237° Southwest 317 365 27,300 -1,650 Descending Memphis Center
Sat 12:08:32 AM 35.4958 -88.4853 228° Southwest 330 380 25,400 -2,000 Descending Memphis Center
Sat 12:09:32 AM 35.4264 -88.5761 227° Southwest 351 404 23,300 -2,000 Descending Memphis Center
Sat 12:10:32 AM 35.3544 -88.6667 226° Southwest 366 421 21,400 -2,050 Descending Memphis Center
Sat 12:11:32 AM 35.2847 -88.7572 227° Southwest 371 427 19,200 -2,300 Descending Memphis Center
Sat 12:12:32 AM 35.2131 -88.8450 225° Southwest 371 427 16,800 -2,050 Descending Memphis Center
Sat 12:13:32 AM 35.1472 -88.9272 226° Southwest 357 411 15,100 -1,850 Descending Memphis Center
Sat 12:14:32 AM 35.0894 -88.9969 225° Southwest 317 365 13,100 -2,150 Descending Memphis Center
Sat 12:15:32 AM 35.0403 -89.0739 232° Southwest 293 337 10,800 -2,100 Descending Memphis Center
Sat 12:16:32 AM 35.0369 -89.1675 268° West 267 307 8,900 -1,800 Descending Memphis Center
Sat 12:17:32 AM 35.0400 -89.2486 273° West 273 314 7,200 -1,750 Descending Memphis Center
Sat 12:18:32 AM 35.0386 -89.3450 269° West 273 314 5,400 -1,200 Descending Memphis Center
Sat 12:19:32 AM 35.0394 -89.4339 271° West 268 308 4,800 -550 Descending Memphis Center
Sat 12:20:32 AM 35.0483 -89.5225 277° West 274 315 4,300 -450 Descending Memphis Center
Sat 12:21:32 AM 35.0508 -89.6139 272° West 274 315 3,900 -450 Descending Memphis Center
Sat 12:22:32 AM 35.0514 -89.6975 270° West 261 300 3,400 -450 Descending Memphis Center
Sat 12:23:32 AM 35.0561 -89.7661 275° West 220 253 3,000 -550 Descending Memphis Center
Sat 12:24:32 AM 35.0564 -89.8244 270° West 187 215 2,300 -800 Descending Memphis Center
Sat 12:25:32 AM 35.0586 -89.8828 273° West 174 200 1,400 -766 Descending Memphis Center
Sat 12:26:06 AM 35.0500 -89.9000 239° Southwest 132 152 1,100 -529 Descending KMEM
Sat 12:28:00 AM 35.0333 -89.9667 270° West  Level FlightAware Approximate
Sat 12:35:00 AM 35.0424 -89.9767 270° West  Level Estimated

Login

Don't have an account? Register now (free) for customized features, flight alerts, and more!